Littleton, New Hampshire
Current Conditions -  °F | °C
As of 8:06 PM on Thursday 18 Dec 2014 (Local Time) from KHIE Reporting Station
Overcast Overcast  
Wind Chill: 23°   Ceiling: 1400
Heat Index: 29°   Visibility: 10mi
Dew Point: 25°   Wind: 6mph
Humidity: 85%   Direction: 280°W
Pressure: 29.82"   Gusts: NA
Location:  44.31°N, 71.77°W
Report Text: KHIE 190106Z AUTO 28005KT 10SM OVC014 M02/M04 A2982 RMK AO2 T10171039
Loading
Personal Weather Stations






























Interactive Weather Map New forecast layout! Learn more

10-Day Weather Forecast

Advertisements
Track Severe Weather on mobile